This is the latest recevied weather packets stored in our database for station/object Winterlng. If no packets are shown the sender has not sent any weather packets the latest 10 day(s).
| Time | Temp. | Humidity | Pressure | Rain* | Wind** | Luminosity | Snow |
|---|---|---|---|---|---|---|---|
| 1777536137 | 7.78° C | 44% | 0 hPa | 0 mm | - | - | - |
| 1777534332 | 7.78° C | 44% | 0 hPa | 0 mm | - | - | - |
| 1777532532 | 6.67° C | 46% | 0 hPa | 0 mm | - | - | - |
| 1777530736 | 6.67° C | 46% | 0 hPa | 0 mm | - | - | - |
| 1777528931 | 5° C | 48% | 0 hPa | 0 mm | - | - | - |
| 1777527131 | 4.44° C | 50% | 0 hPa | 0 mm | - | - | - |
| 1777525332 | 4.44° C | 51% | 0 hPa | 0 mm | - | - | - |
| 1777523532 | 2.78° C | 57% | 0 hPa | 0 mm | - | - | - |
| 1777521732 | 2.78° C | 58% | 0 hPa | 0 mm | - | - | - |
| 1777519931 | 2.78° C | 58% | 0 hPa | 0 mm | - | - | - |
| 1777518132 | 3.33° C | 57% | 0 hPa | 0 mm | - | - | - |
| 1777514532 | 4.44° C | 54% | 0 hPa | 0 mm | - | - | - |
| 1777512731 | 5° C | 52% | 0 hPa | 0 mm | - | - | - |
| 1777510932 | 5.56° C | 49% | 0 hPa | 0 mm | - | - | - |
| 1777509129 | 5.56° C | 47% | 0 hPa | 0 mm | - | - | - |
| 1777507330 | 6.67° C | 46% | 0 hPa | 0 mm | - | - | - |
| 1777505529 | 7.22° C | 45% | 0 hPa | 0 mm | - | - | - |
| 1777503729 | 7.78° C | 44% | 0 hPa | 0 mm | - | - | - |
| 1777501931 | 8.33° C | 43% | 0 hPa | 0 mm | - | - | - |
| 1777500129 | 8.89° C | 41% | 0 hPa | 0 mm | - | - | - |
| 1777498329 | 8.89° C | 41% | 0 hPa | 0 mm | - | - | - |
| 1777496530 | 8.89° C | 42% | 0 hPa | 0 mm | - | - | - |
| 1777494730 | 9.44° C | 41% | 0 hPa | 0 mm | - | - | - |
| 1777492930 | 10° C | 41% | 0 hPa | 0 mm | - | - | - |
| 1777491129 | 10.56° C | 43% | 0 hPa | 0 mm | - | - | - |
* Rain since midnight (hover to see other rain measurements)
** Current wind speed in m/s (hover to see current wind gust speed)